Terminal Aerodrome Forecast
Issued by NWS Mobile, AL

Home | Current Version | Previous Version | Text Only | Print | Product List | Glossary On
Versions: 1 2 3 4 5 6 7 8 9 10 11 12 13 14 15 16 17 18 19
000
FTUS44 KMOB 210529
TAFPNS
TAF
KPNS 210529Z 2106/2206 13012KT P6SM SKC
     FM210700 13009KT 5SM BR OVC025
     FM211200 15012KT P6SM -RA OVC050
      TEMPO 2115/2119 2SM -TSRA BR BKN050CB
     FM212100 21010KT 4SM -RA BR OVC007
     FM220300 30006KT 4SM BR OVC007=

USA.gov is the U.S. government's official web portal to all federal, state and local government web resources and services.